sensor_id;sensor_type;location;lat;lon;timestamp;P1;durP1;ratioP1;P2;durP2;ratioP2
12832;SDS011;6483;51.310;4.462;2022-09-25T00:01:06;12.67;;;3.37;;
12832;SDS011;6483;51.310;4.462;2022-09-25T00:03:33;13.20;;;3.40;;
12832;SDS011;6483;51.310;4.462;2022-09-25T00:06:08;7.63;;;3.77;;
12832;SDS011;6483;51.310;4.462;2022-09-25T00:08:46;9.23;;;3.30;;
12832;SDS011;6483;51.310;4.462;2022-09-25T00:11:13;4.93;;;3.03;;
12832;SDS011;6483;51.310;4.462;2022-09-25T00:13:44;6.43;;;3.00;;
12832;SDS011;6483;51.310;4.462;2022-09-25T00:16:16;3.10;;;2.80;;
12832;SDS011;6483;51.310;4.462;2022-09-25T00:18:49;7.23;;;3.20;;
12832;SDS011;6483;51.310;4.462;2022-09-25T00:21:34;3.93;;;3.10;;
12832;SDS011;6483;51.310;4.462;2022-09-25T00:24:02;6.80;;;3.30;;
12832;SDS011;6483;51.310;4.462;2022-09-25T00:26:30;8.50;;;3.67;;
12832;SDS011;6483;51.310;4.462;2022-09-25T00:28:59;6.40;;;3.43;;
12832;SDS011;6483;51.310;4.462;2022-09-25T00:31:25;6.27;;;2.90;;
12832;SDS011;6483;51.310;4.462;2022-09-25T00:36:47;7.73;;;3.47;;
12832;SDS011;6483;51.310;4.462;2022-09-25T00:39:12;9.07;;;4.00;;
12832;SDS011;6483;51.310;4.462;2022-09-25T00:41:38;9.33;;;3.63;;
12832;SDS011;6483;51.310;4.462;2022-09-25T00:47:07;9.57;;;3.00;;
12832;SDS011;6483;51.310;4.462;2022-09-25T00:49:35;6.63;;;3.27;;
12832;SDS011;6483;51.310;4.462;2022-09-25T00:52:04;8.43;;;3.50;;
12832;SDS011;6483;51.310;4.462;2022-09-25T00:54:35;10.07;;;3.93;;
12832;SDS011;6483;51.310;4.462;2022-09-25T00:57:12;6.40;;;3.80;;
12832;SDS011;6483;51.310;4.462;2022-09-25T00:59:45;6.50;;;4.10;;
12832;SDS011;6483;51.310;4.462;2022-09-25T01:02:25;7.30;;;4.20;;
12832;SDS011;6483;51.310;4.462;2022-09-25T01:05:18;6.33;;;3.70;;
12832;SDS011;6483;51.310;4.462;2022-09-25T01:07:48;9.30;;;4.00;;
12832;SDS011;6483;51.310;4.462;2022-09-25T01:10:15;7.33;;;3.23;;
12832;SDS011;6483;51.310;4.462;2022-09-25T01:12:45;3.63;;;3.17;;
12832;SDS011;6483;51.310;4.462;2022-09-25T01:15:16;5.03;;;3.83;;
12832;SDS011;6483;51.310;4.462;2022-09-25T01:20:25;7.57;;;4.07;;
12832;SDS011;6483;51.310;4.462;2022-09-25T01:31:29;9.20;;;3.77;;
12832;SDS011;6483;51.310;4.462;2022-09-25T01:34:20;10.03;;;4.17;;
12832;SDS011;6483;51.310;4.462;2022-09-25T01:36:54;6.83;;;3.80;;
12832;SDS011;6483;51.310;4.462;2022-09-25T01:39:40;4.20;;;3.53;;
12832;SDS011;6483;51.310;4.462;2022-09-25T01:42:25;5.10;;;3.83;;
12832;SDS011;6483;51.310;4.462;2022-09-25T01:45:05;10.00;;;4.10;;
12832;SDS011;6483;51.310;4.462;2022-09-25T01:47:40;10.27;;;4.23;;
12832;SDS011;6483;51.310;4.462;2022-09-25T01:50:14;7.63;;;4.37;;
12832;SDS011;6483;51.310;4.462;2022-09-25T01:52:48;6.00;;;4.00;;
12832;SDS011;6483;51.310;4.462;2022-09-25T01:55:23;5.70;;;4.00;;
12832;SDS011;6483;51.310;4.462;2022-09-25T01:58:13;8.17;;;4.20;;
12832;SDS011;6483;51.310;4.462;2022-09-25T02:00:43;4.20;;;3.77;;
12832;SDS011;6483;51.310;4.462;2022-09-25T02:03:20;10.50;;;4.23;;
12832;SDS011;6483;51.310;4.462;2022-09-25T02:05:53;4.67;;;3.33;;
12832;SDS011;6483;51.310;4.462;2022-09-25T02:08:22;6.73;;;3.77;;
12832;SDS011;6483;51.310;4.462;2022-09-25T02:11:09;5.93;;;3.73;;
12832;SDS011;6483;51.310;4.462;2022-09-25T02:13:58;7.57;;;3.80;;
12832;SDS011;6483;51.310;4.462;2022-09-25T02:16:51;5.13;;;4.27;;
12832;SDS011;6483;51.310;4.462;2022-09-25T02:19:22;5.27;;;3.70;;
12832;SDS011;6483;51.310;4.462;2022-09-25T02:24:49;4.63;;;3.47;;
12832;SDS011;6483;51.310;4.462;2022-09-25T02:27:36;5.47;;;3.43;;
12832;SDS011;6483;51.310;4.462;2022-09-25T02:30:05;4.03;;;3.50;;
12832;SDS011;6483;51.310;4.462;2022-09-25T02:32:35;7.23;;;3.80;;
12832;SDS011;6483;51.310;4.462;2022-09-25T02:35:01;6.63;;;4.10;;
12832;SDS011;6483;51.310;4.462;2022-09-25T02:37:27;8.70;;;3.53;;
12832;SDS011;6483;51.310;4.462;2022-09-25T02:39:54;10.17;;;3.90;;
12832;SDS011;6483;51.310;4.462;2022-09-25T02:48:45;10.07;;;4.20;;
12832;SDS011;6483;51.310;4.462;2022-09-25T02:51:26;7.33;;;3.87;;
12832;SDS011;6483;51.310;4.462;2022-09-25T02:56:43;6.23;;;4.27;;
12832;SDS011;6483;51.310;4.462;2022-09-25T02:59:17;8.87;;;4.20;;
12832;SDS011;6483;51.310;4.462;2022-09-25T03:01:46;4.80;;;3.67;;
12832;SDS011;6483;51.310;4.462;2022-09-25T03:04:13;6.50;;;4.57;;
12832;SDS011;6483;51.310;4.462;2022-09-25T03:06:41;8.13;;;4.47;;
12832;SDS011;6483;51.310;4.462;2022-09-25T03:09:11;4.77;;;3.83;;
12832;SDS011;6483;51.310;4.462;2022-09-25T03:11:40;6.80;;;4.17;;
12832;SDS011;6483;51.310;4.462;2022-09-25T03:14:08;8.33;;;4.10;;
12832;SDS011;6483;51.310;4.462;2022-09-25T03:16:52;7.23;;;4.20;;
12832;SDS011;6483;51.310;4.462;2022-09-25T03:19:21;5.97;;;3.33;;
12832;SDS011;6483;51.310;4.462;2022-09-25T03:21:49;6.27;;;3.30;;
12832;SDS011;6483;51.310;4.462;2022-09-25T03:24:21;4.40;;;3.40;;
12832;SDS011;6483;51.310;4.462;2022-09-25T03:26:50;6.50;;;3.77;;
12832;SDS011;6483;51.310;4.462;2022-09-25T03:29:16;5.13;;;3.37;;
12832;SDS011;6483;51.310;4.462;2022-09-25T03:31:42;5.03;;;3.87;;
12832;SDS011;6483;51.310;4.462;2022-09-25T03:34:11;10.97;;;4.03;;
12832;SDS011;6483;51.310;4.462;2022-09-25T03:36:39;6.93;;;3.77;;
12832;SDS011;6483;51.310;4.462;2022-09-25T03:39:05;5.23;;;4.00;;
12832;SDS011;6483;51.310;4.462;2022-09-25T03:41:34;9.20;;;4.97;;
12832;SDS011;6483;51.310;4.462;2022-09-25T03:44:03;5.77;;;4.20;;
12832;SDS011;6483;51.310;4.462;2022-09-25T03:46:29;6.50;;;4.27;;
12832;SDS011;6483;51.310;4.462;2022-09-25T03:48:57;3.90;;;3.47;;
12832;SDS011;6483;51.310;4.462;2022-09-25T03:51:24;4.97;;;3.73;;
12832;SDS011;6483;51.310;4.462;2022-09-25T03:53:51;3.50;;;3.13;;
12832;SDS011;6483;51.310;4.462;2022-09-25T03:56:20;5.00;;;4.03;;
12832;SDS011;6483;51.310;4.462;2022-09-25T03:58:50;5.83;;;3.90;;
12832;SDS011;6483;51.310;4.462;2022-09-25T04:01:18;6.17;;;3.57;;
12832;SDS011;6483;51.310;4.462;2022-09-25T04:03:43;3.33;;;3.03;;
12832;SDS011;6483;51.310;4.462;2022-09-25T04:06:11;4.67;;;3.50;;
12832;SDS011;6483;51.310;4.462;2022-09-25T04:08:39;4.80;;;3.60;;
12832;SDS011;6483;51.310;4.462;2022-09-25T04:11:08;3.83;;;3.50;;
12832;SDS011;6483;51.310;4.462;2022-09-25T04:13:35;4.77;;;3.70;;
12832;SDS011;6483;51.310;4.462;2022-09-25T04:16:02;9.03;;;4.07;;
12832;SDS011;6483;51.310;4.462;2022-09-25T04:18:30;5.57;;;4.07;;
12832;SDS011;6483;51.310;4.462;2022-09-25T04:20:56;6.60;;;4.23;;
12832;SDS011;6483;51.310;4.462;2022-09-25T04:23:23;7.70;;;3.73;;
12832;SDS011;6483;51.310;4.462;2022-09-25T04:25:49;6.43;;;4.13;;
12832;SDS011;6483;51.310;4.462;2022-09-25T04:28:15;5.47;;;3.70;;
12832;SDS011;6483;51.310;4.462;2022-09-25T04:30:41;7.13;;;4.33;;
12832;SDS011;6483;51.310;4.462;2022-09-25T04:33:09;6.50;;;3.60;;
12832;SDS011;6483;51.310;4.462;2022-09-25T04:35:57;3.87;;;3.40;;
12832;SDS011;6483;51.310;4.462;2022-09-25T04:38:23;4.10;;;3.47;;
12832;SDS011;6483;51.310;4.462;2022-09-25T04:40:48;6.80;;;3.80;;
12832;SDS011;6483;51.310;4.462;2022-09-25T04:43:15;5.40;;;4.17;;
12832;SDS011;6483;51.310;4.462;2022-09-25T04:45:40;6.73;;;3.97;;
12832;SDS011;6483;51.310;4.462;2022-09-25T04:48:11;6.17;;;3.77;;
12832;SDS011;6483;51.310;4.462;2022-09-25T04:50:37;5.80;;;4.13;;
12832;SDS011;6483;51.310;4.462;2022-09-25T04:53:03;6.40;;;4.00;;
12832;SDS011;6483;51.310;4.462;2022-09-25T04:55:29;6.20;;;4.27;;
12832;SDS011;6483;51.310;4.462;2022-09-25T04:57:58;4.87;;;3.90;;
12832;SDS011;6483;51.310;4.462;2022-09-25T05:00:26;5.33;;;3.80;;
12832;SDS011;6483;51.310;4.462;2022-09-25T05:02:56;6.70;;;4.20;;
12832;SDS011;6483;51.310;4.462;2022-09-25T05:05:22;6.03;;;4.20;;
12832;SDS011;6483;51.310;4.462;2022-09-25T05:07:52;6.03;;;3.53;;
12832;SDS011;6483;51.310;4.462;2022-09-25T05:10:19;4.30;;;3.20;;
12832;SDS011;6483;51.310;4.462;2022-09-25T05:12:54;6.23;;;3.77;;
12832;SDS011;6483;51.310;4.462;2022-09-25T05:15:25;5.60;;;4.00;;
12832;SDS011;6483;51.310;4.462;2022-09-25T05:18:06;5.97;;;3.47;;
12832;SDS011;6483;51.310;4.462;2022-09-25T05:20:37;6.00;;;3.70;;
12832;SDS011;6483;51.310;4.462;2022-09-25T05:23:05;6.57;;;3.50;;
12832;SDS011;6483;51.310;4.462;2022-09-25T05:25:31;4.77;;;3.23;;
12832;SDS011;6483;51.310;4.462;2022-09-25T05:27:58;4.83;;;3.70;;
12832;SDS011;6483;51.310;4.462;2022-09-25T05:30:25;4.90;;;3.33;;
12832;SDS011;6483;51.310;4.462;2022-09-25T05:32:52;5.13;;;3.60;;
12832;SDS011;6483;51.310;4.462;2022-09-25T05:35:19;4.90;;;3.90;;
12832;SDS011;6483;51.310;4.462;2022-09-25T05:37:46;6.63;;;3.40;;
12832;SDS011;6483;51.310;4.462;2022-09-25T05:40:12;7.27;;;3.90;;
12832;SDS011;6483;51.310;4.462;2022-09-25T05:42:41;4.83;;;3.37;;
12832;SDS011;6483;51.310;4.462;2022-09-25T05:45:08;5.53;;;3.63;;
12832;SDS011;6483;51.310;4.462;2022-09-25T05:47:39;3.60;;;3.30;;
12832;SDS011;6483;51.310;4.462;2022-09-25T05:50:10;4.13;;;3.63;;
12832;SDS011;6483;51.310;4.462;2022-09-25T05:52:37;4.30;;;3.53;;
12832;SDS011;6483;51.310;4.462;2022-09-25T05:55:10;5.63;;;3.83;;
12832;SDS011;6483;51.310;4.462;2022-09-25T05:57:36;5.43;;;3.90;;
12832;SDS011;6483;51.310;4.462;2022-09-25T06:00:05;6.33;;;3.87;;
12832;SDS011;6483;51.310;4.462;2022-09-25T06:02:33;4.97;;;4.27;;
12832;SDS011;6483;51.310;4.462;2022-09-25T06:05:01;7.03;;;3.53;;
12832;SDS011;6483;51.310;4.462;2022-09-25T06:07:30;6.27;;;4.00;;
12832;SDS011;6483;51.310;4.462;2022-09-25T06:09:56;5.87;;;4.00;;
12832;SDS011;6483;51.310;4.462;2022-09-25T06:12:21;9.13;;;4.10;;
12832;SDS011;6483;51.310;4.462;2022-09-25T06:14:48;6.47;;;4.23;;
12832;SDS011;6483;51.310;4.462;2022-09-25T06:17:16;6.77;;;4.60;;
12832;SDS011;6483;51.310;4.462;2022-09-25T06:19:44;4.87;;;4.00;;
12832;SDS011;6483;51.310;4.462;2022-09-25T06:22:10;6.67;;;4.23;;
12832;SDS011;6483;51.310;4.462;2022-09-25T06:24:36;5.37;;;3.73;;
12832;SDS011;6483;51.310;4.462;2022-09-25T06:27:05;5.60;;;5.00;;
12832;SDS011;6483;51.310;4.462;2022-09-25T06:29:34;6.77;;;5.10;;
12832;SDS011;6483;51.310;4.462;2022-09-25T06:32:00;7.53;;;5.13;;
12832;SDS011;6483;51.310;4.462;2022-09-25T06:34:28;5.97;;;4.80;;
12832;SDS011;6483;51.310;4.462;2022-09-25T06:36:58;6.53;;;4.63;;
12832;SDS011;6483;51.310;4.462;2022-09-25T06:39:25;5.67;;;4.93;;
12832;SDS011;6483;51.310;4.462;2022-09-25T06:41:51;10.10;;;5.30;;
12832;SDS011;6483;51.310;4.462;2022-09-25T06:44:20;6.60;;;5.20;;
12832;SDS011;6483;51.310;4.462;2022-09-25T06:46:52;6.03;;;4.90;;
12832;SDS011;6483;51.310;4.462;2022-09-25T06:49:19;6.87;;;4.83;;
12832;SDS011;6483;51.310;4.462;2022-09-25T06:51:47;8.93;;;5.10;;
12832;SDS011;6483;51.310;4.462;2022-09-25T06:54:15;8.50;;;5.03;;
12832;SDS011;6483;51.310;4.462;2022-09-25T06:56:47;7.53;;;5.40;;
12832;SDS011;6483;51.310;4.462;2022-09-25T06:59:13;7.57;;;5.43;;
12832;SDS011;6483;51.310;4.462;2022-09-25T07:01:39;6.03;;;5.20;;
12832;SDS011;6483;51.310;4.462;2022-09-25T07:04:05;4.93;;;4.20;;
12832;SDS011;6483;51.310;4.462;2022-09-25T07:06:31;6.57;;;5.00;;
12832;SDS011;6483;51.310;4.462;2022-09-25T07:08:59;6.40;;;4.33;;
12832;SDS011;6483;51.310;4.462;2022-09-25T07:11:26;5.30;;;4.60;;
12832;SDS011;6483;51.310;4.462;2022-09-25T07:13:52;6.43;;;4.77;;
12832;SDS011;6483;51.310;4.462;2022-09-25T07:16:30;7.33;;;6.03;;
12832;SDS011;6483;51.310;4.462;2022-09-25T07:19:01;12.50;;;5.57;;
12832;SDS011;6483;51.310;4.462;2022-09-25T07:21:33;7.33;;;4.93;;
12832;SDS011;6483;51.310;4.462;2022-09-25T07:23:58;6.23;;;4.77;;
12832;SDS011;6483;51.310;4.462;2022-09-25T07:26:28;6.17;;;4.50;;
12832;SDS011;6483;51.310;4.462;2022-09-25T07:28:59;12.10;;;5.47;;
12832;SDS011;6483;51.310;4.462;2022-09-25T07:31:33;7.97;;;4.50;;
12832;SDS011;6483;51.310;4.462;2022-09-25T07:34:01;10.70;;;5.90;;
12832;SDS011;6483;51.310;4.462;2022-09-25T07:36:33;11.77;;;5.77;;
12832;SDS011;6483;51.310;4.462;2022-09-25T07:39:00;7.60;;;5.77;;
12832;SDS011;6483;51.310;4.462;2022-09-25T07:41:26;9.63;;;5.43;;
12832;SDS011;6483;51.310;4.462;2022-09-25T07:43:52;9.35;;;5.40;;
12832;SDS011;6483;51.310;4.462;2022-09-25T07:46:21;11.38;;;6.07;;
12832;SDS011;6483;51.310;4.462;2022-09-25T07:48:48;11.63;;;5.82;;
12832;SDS011;6483;51.310;4.462;2022-09-25T07:51:16;10.10;;;5.25;;
12832;SDS011;6483;51.310;4.462;2022-09-25T07:53:43;11.35;;;6.78;;
12832;SDS011;6483;51.310;4.462;2022-09-25T07:56:11;9.07;;;5.82;;
12832;SDS011;6483;51.310;4.462;2022-09-25T07:58:37;15.85;;;6.60;;
12832;SDS011;6483;51.310;4.462;2022-09-25T08:01:04;11.30;;;5.88;;
12832;SDS011;6483;51.310;4.462;2022-09-25T08:03:34;11.60;;;5.63;;
12832;SDS011;6483;51.310;4.462;2022-09-25T08:06:18;14.00;;;5.57;;
12832;SDS011;6483;51.310;4.462;2022-09-25T08:08:44;14.88;;;4.45;;
12832;SDS011;6483;51.310;4.462;2022-09-25T08:11:13;8.80;;;4.90;;
12832;SDS011;6483;51.310;4.462;2022-09-25T08:13:41;12.93;;;5.85;;
12832;SDS011;6483;51.310;4.462;2022-09-25T08:16:09;14.50;;;5.50;;
12832;SDS011;6483;51.310;4.462;2022-09-25T08:18:39;11.60;;;5.55;;
12832;SDS011;6483;51.310;4.462;2022-09-25T08:21:10;7.18;;;4.55;;
12832;SDS011;6483;51.310;4.462;2022-09-25T08:23:39;8.65;;;4.40;;
12832;SDS011;6483;51.310;4.462;2022-09-25T08:26:05;9.63;;;5.22;;
12832;SDS011;6483;51.310;4.462;2022-09-25T08:28:31;9.87;;;4.93;;
12832;SDS011;6483;51.310;4.462;2022-09-25T08:30:58;12.25;;;5.00;;
12832;SDS011;6483;51.310;4.462;2022-09-25T08:33:27;11.17;;;5.43;;
12832;SDS011;6483;51.310;4.462;2022-09-25T08:35:53;8.23;;;4.90;;
12832;SDS011;6483;51.310;4.462;2022-09-25T08:38:21;11.65;;;5.72;;
12832;SDS011;6483;51.310;4.462;2022-09-25T08:43:29;10.82;;;6.28;;
12832;SDS011;6483;51.310;4.462;2022-09-25T08:45:57;11.63;;;5.25;;
12832;SDS011;6483;51.310;4.462;2022-09-25T08:48:50;7.13;;;3.78;;
12832;SDS011;6483;51.310;4.462;2022-09-25T08:51:30;5.95;;;2.10;;
12832;SDS011;6483;51.310;4.462;2022-09-25T08:54:10;7.03;;;1.60;;
12832;SDS011;6483;51.310;4.462;2022-09-25T08:57:00;3.67;;;1.50;;
12832;SDS011;6483;51.310;4.462;2022-09-25T08:59:36;1.90;;;1.08;;
12832;SDS011;6483;51.310;4.462;2022-09-25T09:02:18;2.72;;;1.08;;
12832;SDS011;6483;51.310;4.462;2022-09-25T09:04:47;5.45;;;1.30;;
12832;SDS011;6483;51.310;4.462;2022-09-25T09:07:21;7.82;;;1.50;;
12832;SDS011;6483;51.310;4.462;2022-09-25T09:17:44;3.25;;;1.10;;
12832;SDS011;6483;51.310;4.462;2022-09-25T09:20:17;3.13;;;1.05;;
12832;SDS011;6483;51.310;4.462;2022-09-25T09:22:50;2.08;;;1.10;;
12832;SDS011;6483;51.310;4.462;2022-09-25T09:25:27;4.63;;;1.52;;
12832;SDS011;6483;51.310;4.462;2022-09-25T09:31:12;4.10;;;1.00;;
12832;SDS011;6483;51.310;4.462;2022-09-25T09:36:49;2.20;;;0.60;;
12832;SDS011;6483;51.310;4.462;2022-09-25T09:39:28;3.40;;;1.00;;
12832;SDS011;6483;51.310;4.462;2022-09-25T09:48:02;1.35;;;0.47;;
12832;SDS011;6483;51.310;4.462;2022-09-25T09:50:54;5.93;;;1.00;;
12832;SDS011;6483;51.310;4.462;2022-09-25T09:53:27;2.30;;;0.75;;
12832;SDS011;6483;51.310;4.462;2022-09-25T09:56:09;3.80;;;0.77;;
12832;SDS011;6483;51.310;4.462;2022-09-25T10:01:13;4.50;;;0.95;;
12832;SDS011;6483;51.310;4.462;2022-09-25T10:03:42;1.75;;;0.70;;
12832;SDS011;6483;51.310;4.462;2022-09-25T10:06:10;1.98;;;0.60;;
12832;SDS011;6483;51.310;4.462;2022-09-25T10:08:44;3.15;;;0.68;;
12832;SDS011;6483;51.310;4.462;2022-09-25T10:11:14;3.20;;;0.82;;
12832;SDS011;6483;51.310;4.462;2022-09-25T10:13:42;4.15;;;0.77;;
12832;SDS011;6483;51.310;4.462;2022-09-25T10:16:20;3.47;;;0.93;;
12832;SDS011;6483;51.310;4.462;2022-09-25T10:18:56;2.40;;;0.75;;
12832;SDS011;6483;51.310;4.462;2022-09-25T10:21:28;4.05;;;0.75;;
12832;SDS011;6483;51.310;4.462;2022-09-25T10:24:03;4.78;;;0.85;;
12832;SDS011;6483;51.310;4.462;2022-09-25T10:26:35;2.28;;;0.68;;
12832;SDS011;6483;51.310;4.462;2022-09-25T10:29:03;2.47;;;0.65;;
12832;SDS011;6483;51.310;4.462;2022-09-25T10:31:55;5.53;;;0.80;;
12832;SDS011;6483;51.310;4.462;2022-09-25T10:34:26;6.63;;;1.10;;
12832;SDS011;6483;51.310;4.462;2022-09-25T10:36:55;3.65;;;1.80;;
12832;SDS011;6483;51.310;4.462;2022-09-25T10:39:23;3.15;;;1.10;;
12832;SDS011;6483;51.310;4.462;2022-09-25T10:42:03;2.92;;;1.15;;
12832;SDS011;6483;51.310;4.462;2022-09-25T10:44:50;2.45;;;1.05;;
12832;SDS011;6483;51.310;4.462;2022-09-25T10:47:25;3.78;;;1.38;;
12832;SDS011;6483;51.310;4.462;2022-09-25T10:50:24;5.53;;;1.88;;
12832;SDS011;6483;51.310;4.462;2022-09-25T10:52:55;2.35;;;0.70;;
12832;SDS011;6483;51.310;4.462;2022-09-25T10:55:34;3.05;;;0.77;;
12832;SDS011;6483;51.310;4.462;2022-09-25T10:58:13;3.55;;;1.02;;
12832;SDS011;6483;51.310;4.462;2022-09-25T11:03:17;3.63;;;0.63;;
12832;SDS011;6483;51.310;4.462;2022-09-25T11:06:03;1.58;;;0.63;;
12832;SDS011;6483;51.310;4.462;2022-09-25T11:08:34;3.08;;;0.47;;
12832;SDS011;6483;51.310;4.462;2022-09-25T11:11:06;4.57;;;0.80;;
12832;SDS011;6483;51.310;4.462;2022-09-25T11:13:44;2.50;;;1.05;;
12832;SDS011;6483;51.310;4.462;2022-09-25T11:16:15;2.55;;;0.60;;
12832;SDS011;6483;51.310;4.462;2022-09-25T11:18:45;3.88;;;1.70;;
12832;SDS011;6483;51.310;4.462;2022-09-25T11:21:30;4.10;;;1.58;;
12832;SDS011;6483;51.310;4.462;2022-09-25T11:27:49;4.93;;;1.27;;
12832;SDS011;6483;51.310;4.462;2022-09-25T11:30:22;2.58;;;0.93;;
12832;SDS011;6483;51.310;4.462;2022-09-25T11:43:35;1.48;;;0.50;;
12832;SDS011;6483;51.310;4.462;2022-09-25T11:46:34;2.47;;;0.90;;
12832;SDS011;6483;51.310;4.462;2022-09-25T12:06:43;1.60;;;0.50;;
12832;SDS011;6483;51.310;4.462;2022-09-25T12:12:28;0.73;;;0.47;;
12832;SDS011;6483;51.310;4.462;2022-09-25T12:15:11;3.90;;;0.80;;
12832;SDS011;6483;51.310;4.462;2022-09-25T12:20:51;1.40;;;0.57;;
12832;SDS011;6483;51.310;4.462;2022-09-25T12:40:10;3.33;;;0.60;;
12832;SDS011;6483;51.310;4.462;2022-09-25T12:42:53;3.13;;;0.63;;
12832;SDS011;6483;51.310;4.462;2022-09-25T12:48:38;1.63;;;0.70;;
12832;SDS011;6483;51.310;4.462;2022-09-25T12:51:29;1.35;;;0.40;;
12832;SDS011;6483;51.310;4.462;2022-09-25T12:54:23;0.85;;;0.40;;
12832;SDS011;6483;51.310;4.462;2022-09-25T12:57:27;1.23;;;0.45;;
12832;SDS011;6483;51.310;4.462;2022-09-25T13:00:06;0.88;;;0.47;;
12832;SDS011;6483;51.310;4.462;2022-09-25T13:02:56;1.17;;;0.50;;
12832;SDS011;6483;51.310;4.462;2022-09-25T13:11:01;2.55;;;0.70;;
12832;SDS011;6483;51.310;4.462;2022-09-25T13:13:36;1.23;;;0.50;;
12832;SDS011;6483;51.310;4.462;2022-09-25T13:16:09;3.92;;;0.50;;
12832;SDS011;6483;51.310;4.462;2022-09-25T13:18:45;5.65;;;0.63;;
12832;SDS011;6483;51.310;4.462;2022-09-25T13:21:30;4.03;;;0.60;;
12832;SDS011;6483;51.310;4.462;2022-09-25T13:24:02;1.48;;;0.77;;
12832;SDS011;6483;51.310;4.462;2022-09-25T13:26:49;1.85;;;0.65;;
12832;SDS011;6483;51.310;4.462;2022-09-25T13:34:42;8.50;;;0.88;;
12832;SDS011;6483;51.310;4.462;2022-09-25T13:37:15;5.18;;;0.60;;
12832;SDS011;6483;51.310;4.462;2022-09-25T13:39:43;4.10;;;0.65;;
12832;SDS011;6483;51.310;4.462;2022-09-25T13:42:36;2.85;;;0.73;;
12832;SDS011;6483;51.310;4.462;2022-09-25T13:47:57;2.45;;;0.90;;
12832;SDS011;6483;51.310;4.462;2022-09-25T13:50:35;0.93;;;0.40;;
12832;SDS011;6483;51.310;4.462;2022-09-25T13:56:03;1.73;;;0.82;;
12832;SDS011;6483;51.310;4.462;2022-09-25T13:58:30;5.65;;;0.90;;
12832;SDS011;6483;51.310;4.462;2022-09-25T14:01:33;2.45;;;0.50;;
12832;SDS011;6483;51.310;4.462;2022-09-25T14:04:19;2.70;;;0.63;;
12832;SDS011;6483;51.310;4.462;2022-09-25T14:07:12;3.70;;;0.60;;
12832;SDS011;6483;51.310;4.462;2022-09-25T14:09:52;2.00;;;0.50;;
12832;SDS011;6483;51.310;4.462;2022-09-25T14:12:26;6.78;;;0.68;;
12832;SDS011;6483;51.310;4.462;2022-09-25T14:17:59;1.52;;;0.70;;
12832;SDS011;6483;51.310;4.462;2022-09-25T14:23:21;4.40;;;0.90;;
12832;SDS011;6483;51.310;4.462;2022-09-25T14:26:04;1.27;;;0.75;;
12832;SDS011;6483;51.310;4.462;2022-09-25T14:28:42;0.70;;;0.40;;
12832;SDS011;6483;51.310;4.462;2022-09-25T14:34:01;0.90;;;0.47;;
12832;SDS011;6483;51.310;4.462;2022-09-25T14:42:25;4.10;;;0.88;;
12832;SDS011;6483;51.310;4.462;2022-09-25T14:45:43;4.05;;;0.73;;
12832;SDS011;6483;51.310;4.462;2022-09-25T14:48:35;1.13;;;0.77;;
12832;SDS011;6483;51.310;4.462;2022-09-25T14:54:22;5.82;;;1.63;;
12832;SDS011;6483;51.310;4.462;2022-09-25T14:56:52;1.63;;;1.40;;
12832;SDS011;6483;51.310;4.462;2022-09-25T14:59:30;2.33;;;1.60;;
12832;SDS011;6483;51.310;4.462;2022-09-25T15:02:20;1.00;;;0.80;;
12832;SDS011;6483;51.310;4.462;2022-09-25T15:08:01;2.15;;;0.70;;
12832;SDS011;6483;51.310;4.462;2022-09-25T15:10:31;1.95;;;0.85;;
12832;SDS011;6483;51.310;4.462;2022-09-25T15:15:43;3.22;;;0.68;;
12832;SDS011;6483;51.310;4.462;2022-09-25T15:18:51;1.30;;;0.30;;
12832;SDS011;6483;51.310;4.462;2022-09-25T15:21:23;0.73;;;0.32;;
12832;SDS011;6483;51.310;4.462;2022-09-25T15:23:53;0.93;;;0.47;;
12832;SDS011;6483;51.310;4.462;2022-09-25T15:26:22;0.85;;;0.30;;
12832;SDS011;6483;51.310;4.462;2022-09-25T15:28:53;1.85;;;0.50;;
12832;SDS011;6483;51.310;4.462;2022-09-25T15:31:19;1.73;;;0.40;;
12832;SDS011;6483;51.310;4.462;2022-09-25T15:33:59;0.35;;;0.30;;
12832;SDS011;6483;51.310;4.462;2022-09-25T15:36:35;1.95;;;0.43;;
12832;SDS011;6483;51.310;4.462;2022-09-25T15:39:02;1.40;;;0.50;;
12832;SDS011;6483;51.310;4.462;2022-09-25T15:41:40;1.83;;;0.77;;
12832;SDS011;6483;51.310;4.462;2022-09-25T15:47:05;2.00;;;0.70;;
12832;SDS011;6483;51.310;4.462;2022-09-25T15:50:15;1.95;;;0.70;;
12832;SDS011;6483;51.310;4.462;2022-09-25T15:52:47;2.00;;;0.28;;
12832;SDS011;6483;51.310;4.462;2022-09-25T15:55:18;0.73;;;0.43;;
12832;SDS011;6483;51.310;4.462;2022-09-25T15:57:45;3.08;;;0.70;;
12832;SDS011;6483;51.310;4.462;2022-09-25T16:00:22;2.95;;;0.50;;
12832;SDS011;6483;51.310;4.462;2022-09-25T16:03:13;5.57;;;0.60;;
12832;SDS011;6483;51.310;4.462;2022-09-25T16:06:11;2.65;;;0.63;;
12832;SDS011;6483;51.310;4.462;2022-09-25T16:08:44;3.00;;;0.50;;
12832;SDS011;6483;51.310;4.462;2022-09-25T16:13:49;8.85;;;2.38;;
12832;SDS011;6483;51.310;4.462;2022-09-25T16:18:53;1.95;;;0.70;;
12832;SDS011;6483;51.310;4.462;2022-09-25T16:21:27;2.15;;;1.30;;
12832;SDS011;6483;51.310;4.462;2022-09-25T16:24:04;4.40;;;1.27;;
12832;SDS011;6483;51.310;4.462;2022-09-25T16:32:00;4.20;;;0.90;;
12832;SDS011;6483;51.310;4.462;2022-09-25T16:35:29;10.55;;;1.40;;
12832;SDS011;6483;51.310;4.462;2022-09-25T16:37:43;4.70;;;0.82;;
12832;SDS011;6483;51.310;4.462;2022-09-25T16:40:19;2.80;;;0.70;;
12832;SDS011;6483;51.310;4.462;2022-09-25T16:42:48;3.22;;;0.60;;
12832;SDS011;6483;51.310;4.462;2022-09-25T16:45:20;0.73;;;0.55;;
12832;SDS011;6483;51.310;4.462;2022-09-25T16:47:52;0.73;;;0.55;;
12832;SDS011;6483;51.310;4.462;2022-09-25T16:50:19;4.35;;;0.73;;
12832;SDS011;6483;51.310;4.462;2022-09-25T16:52:46;1.98;;;0.45;;
12832;SDS011;6483;51.310;4.462;2022-09-25T16:55:26;1.60;;;0.40;;
12832;SDS011;6483;51.310;4.462;2022-09-25T16:58:04;3.67;;;0.60;;
12832;SDS011;6483;51.310;4.462;2022-09-25T17:00:34;2.40;;;0.77;;
12832;SDS011;6483;51.310;4.462;2022-09-25T17:02:59;2.63;;;0.80;;
12832;SDS011;6483;51.310;4.462;2022-09-25T17:05:26;1.13;;;0.70;;
12832;SDS011;6483;51.310;4.462;2022-09-25T17:07:55;1.33;;;0.80;;
12832;SDS011;6483;51.310;4.462;2022-09-25T17:10:28;0.65;;;0.30;;
12832;SDS011;6483;51.310;4.462;2022-09-25T17:12:56;1.75;;;0.75;;
12832;SDS011;6483;51.310;4.462;2022-09-25T17:15:31;2.40;;;0.50;;
12832;SDS011;6483;51.310;4.462;2022-09-25T17:17:59;3.65;;;0.85;;
12832;SDS011;6483;51.310;4.462;2022-09-25T17:20:29;2.30;;;0.75;;
12832;SDS011;6483;51.310;4.462;2022-09-25T17:22:55;4.68;;;0.82;;
12832;SDS011;6483;51.310;4.462;2022-09-25T17:25:28;17.35;;;2.58;;
12832;SDS011;6483;51.310;4.462;2022-09-25T17:28:01;30.70;;;4.70;;
12832;SDS011;6483;51.310;4.462;2022-09-25T17:30:29;9.40;;;2.72;;
12832;SDS011;6483;51.310;4.462;2022-09-25T17:33:02;10.15;;;1.70;;
12832;SDS011;6483;51.310;4.462;2022-09-25T17:38:02;10.82;;;2.92;;
12832;SDS011;6483;51.310;4.462;2022-09-25T17:40:28;5.32;;;2.10;;
12832;SDS011;6483;51.310;4.462;2022-09-25T17:42:57;9.32;;;2.17;;
12832;SDS011;6483;51.310;4.462;2022-09-25T17:45:27;14.20;;;2.03;;
12832;SDS011;6483;51.310;4.462;2022-09-25T17:48:03;5.25;;;1.70;;
12832;SDS011;6483;51.310;4.462;2022-09-25T17:50:29;4.32;;;1.65;;
12832;SDS011;6483;51.310;4.462;2022-09-25T17:53:01;3.50;;;1.90;;
12832;SDS011;6483;51.310;4.462;2022-09-25T17:55:28;3.25;;;1.40;;
12832;SDS011;6483;51.310;4.462;2022-09-25T17:57:57;4.55;;;1.90;;
12832;SDS011;6483;51.310;4.462;2022-09-25T18:00:22;2.17;;;1.40;;
12832;SDS011;6483;51.310;4.462;2022-09-25T18:02:49;2.38;;;1.60;;
12832;SDS011;6483;51.310;4.462;2022-09-25T18:05:15;1.50;;;1.40;;
12832;SDS011;6483;51.310;4.462;2022-09-25T18:07:42;2.42;;;1.85;;
12832;SDS011;6483;51.310;4.462;2022-09-25T18:10:11;2.72;;;1.52;;
12832;SDS011;6483;51.310;4.462;2022-09-25T18:12:37;1.98;;;1.48;;
12832;SDS011;6483;51.310;4.462;2022-09-25T18:15:03;2.78;;;1.90;;
12832;SDS011;6483;51.310;4.462;2022-09-25T18:17:32;4.05;;;2.50;;
12832;SDS011;6483;51.310;4.462;2022-09-25T18:20:00;3.07;;;2.40;;
12832;SDS011;6483;51.310;4.462;2022-09-25T18:22:44;3.93;;;2.50;;
12832;SDS011;6483;51.310;4.462;2022-09-25T18:25:09;6.18;;;2.15;;